< < Back
Terminal Aerodrome Forecast


Current Version              Previous Versions:   1  2  3  4  5  6  7  8  9  

Terminal Aerodrome Forecast

618
FTUS42 KCAE 252320
TAFCAE
TAF
KCAE 252320Z 2600/2624 12006KT P6SM SCT045
     FM260900 07003KT P6SM SCT008 OVC020
     FM261100 08003KT P6SM OVC008
     FM261400 11006KT P6SM SCT008 OVC020
     FM261600 11006KT P6SM SCT020 BKN035=

Latest METAR

081
SAUS80 KWBC 260300
MTRCAE
METAR KCAE 260256Z 00000KT 10SM CLR 26/21 A3008 RMK AO2 SLP182 T02560206
51013


USA.gov is the U.S. government's official web portal to all federal, state and local government web resources and services.